首页
METAR-TAF:

METAR-TAF

机场 :

阿薩盧耶, 伊朗

纬度: 27-22-46N, 经度: 52-44-15E, 海拔: 8米

当前天气观测

该预报发布于30分钟前的09:00 UTC
风速19节,风向东南
温度 29°C
湿度 37%
气压 1006 hPa
能見度: 7000
散云层高于3500英尺
多云层高于10000英尺

METAR: OIBP 290900Z 13019KT 7000 SCT035 BKN100 29/13 Q1005 A2970

时间: 14:00 (09:30 UTC)


TAF: 丢失

超过4000个机场的气象观测和天气预报(METAR&TAF报告)。

可查询的气象台以黄色和红色小点在地图上表示。

将鼠标移到小点上方,可查看气象台名称。

然后点击查看天气观测和预报。

如需切换地图:点击带黑十字的绿色按钮放大地图;点击带横线的绿色按钮缩小地图;或者点击绿色箭头查看邻近地区的地图。


METAR-TAF: